sensor_id;sensor_type;location;lat;lon;timestamp;pressure;altitude;pressure_sealevel;temperature;humidity
62849;BME280;48941;49.516;8.286;2023-11-22T00:01:23;101031.53;;;6.77;100.00
62849;BME280;48941;49.516;8.286;2023-11-22T00:03:52;101036.13;;;6.74;100.00
62849;BME280;48941;49.516;8.286;2023-11-22T00:06:19;101038.06;;;6.70;100.00
62849;BME280;48941;49.516;8.286;2023-11-22T00:08:48;101042.53;;;6.70;100.00
62849;BME280;48941;49.516;8.286;2023-11-22T00:11:16;101042.78;;;6.65;100.00
62849;BME280;48941;49.516;8.286;2023-11-22T00:13:44;101037.38;;;6.67;100.00
62849;BME280;48941;49.516;8.286;2023-11-22T00:16:12;101049.84;;;6.65;100.00
62849;BME280;48941;49.516;8.286;2023-11-22T00:18:41;101040.28;;;6.62;100.00
62849;BME280;48941;49.516;8.286;2023-11-22T00:21:09;101035.06;;;6.61;100.00
62849;BME280;48941;49.516;8.286;2023-11-22T00:23:38;101048.22;;;6.62;100.00
62849;BME280;48941;49.516;8.286;2023-11-22T00:26:05;101044.72;;;6.62;100.00
62849;BME280;48941;49.516;8.286;2023-11-22T00:28:33;101046.59;;;6.60;100.00
62849;BME280;48941;49.516;8.286;2023-11-22T00:31:01;101054.53;;;6.60;100.00
62849;BME280;48941;49.516;8.286;2023-11-22T00:33:29;101063.66;;;6.54;100.00
62849;BME280;48941;49.516;8.286;2023-11-22T00:35:59;101069.78;;;6.54;100.00
62849;BME280;48941;49.516;8.286;2023-11-22T00:38:30;101068.88;;;6.55;100.00
62849;BME280;48941;49.516;8.286;2023-11-22T00:41:01;101073.28;;;6.55;100.00
62849;BME280;48941;49.516;8.286;2023-11-22T00:43:29;101069.88;;;6.53;100.00
62849;BME280;48941;49.516;8.286;2023-11-22T00:45:57;101072.75;;;6.48;100.00
62849;BME280;48941;49.516;8.286;2023-11-22T00:48:26;101068.56;;;6.44;100.00
62849;BME280;48941;49.516;8.286;2023-11-22T00:50:53;101069.53;;;6.43;100.00
62849;BME280;48941;49.516;8.286;2023-11-22T00:53:23;101078.06;;;6.48;100.00
62849;BME280;48941;49.516;8.286;2023-11-22T00:55:52;101078.06;;;6.48;100.00
62849;BME280;48941;49.516;8.286;2023-11-22T00:58:20;101086.06;;;6.47;100.00
62849;BME280;48941;49.516;8.286;2023-11-22T01:00:48;101076.75;;;6.40;100.00
62849;BME280;48941;49.516;8.286;2023-11-22T01:03:16;101084.75;;;6.38;100.00
62849;BME280;48941;49.516;8.286;2023-11-22T01:05:44;101082.25;;;6.35;100.00
62849;BME280;48941;49.516;8.286;2023-11-22T01:08:13;101088.81;;;6.28;100.00
62849;BME280;48941;49.516;8.286;2023-11-22T01:10:42;101084.69;;;6.22;100.00
62849;BME280;48941;49.516;8.286;2023-11-22T01:13:10;101090.16;;;6.19;100.00
62849;BME280;48941;49.516;8.286;2023-11-22T01:15:37;101090.53;;;6.11;100.00
62849;BME280;48941;49.516;8.286;2023-11-22T01:18:05;101098.91;;;6.02;100.00
62849;BME280;48941;49.516;8.286;2023-11-22T01:20:33;101091.41;;;5.93;100.00
62849;BME280;48941;49.516;8.286;2023-11-22T01:23:01;101098.72;;;5.88;100.00
62849;BME280;48941;49.516;8.286;2023-11-22T01:25:29;101094.34;;;5.87;100.00
62849;BME280;48941;49.516;8.286;2023-11-22T01:27:58;101095.38;;;5.84;100.00
62849;BME280;48941;49.516;8.286;2023-11-22T01:30:27;101103.53;;;5.79;100.00
62849;BME280;48941;49.516;8.286;2023-11-22T01:32:55;101098.69;;;5.70;100.00
62849;BME280;48941;49.516;8.286;2023-11-22T01:35:23;101102.09;;;5.72;100.00
62849;BME280;48941;49.516;8.286;2023-11-22T01:37:51;101104.91;;;5.69;100.00
62849;BME280;48941;49.516;8.286;2023-11-22T01:40:19;101106.13;;;5.62;100.00
62849;BME280;48941;49.516;8.286;2023-11-22T01:42:47;101108.13;;;5.57;100.00
62849;BME280;48941;49.516;8.286;2023-11-22T01:45:16;101128.47;;;5.55;97.94
62849;BME280;48941;49.516;8.286;2023-11-22T01:47:45;101128.16;;;5.44;99.21
62849;BME280;48941;49.516;8.286;2023-11-22T01:50:14;101141.28;;;5.45;98.47
62849;BME280;48941;49.516;8.286;2023-11-22T01:52:43;101142.63;;;5.35;97.35
62849;BME280;48941;49.516;8.286;2023-11-22T01:55:12;101138.50;;;5.29;97.03
62849;BME280;48941;49.516;8.286;2023-11-22T01:57:40;101147.50;;;5.25;97.74
62849;BME280;48941;49.516;8.286;2023-11-22T02:00:09;101149.13;;;5.28;98.33
62849;BME280;48941;49.516;8.286;2023-11-22T02:02:42;101145.00;;;5.22;96.91
62849;BME280;48941;49.516;8.286;2023-11-22T02:05:11;101147.97;;;5.14;97.59
62849;BME280;48941;49.516;8.286;2023-11-22T02:07:38;101144.31;;;5.17;98.74
62849;BME280;48941;49.516;8.286;2023-11-22T02:10:08;101146.56;;;5.07;98.62
62849;BME280;48941;49.516;8.286;2023-11-22T02:12:37;101164.09;;;5.08;99.60
62849;BME280;48941;49.516;8.286;2023-11-22T02:15:06;101161.72;;;5.02;100.00
62849;BME280;48941;49.516;8.286;2023-11-22T02:17:34;101155.00;;;4.95;100.00
62849;BME280;48941;49.516;8.286;2023-11-22T02:20:05;101159.31;;;4.97;100.00
62849;BME280;48941;49.516;8.286;2023-11-22T02:22:42;101167.28;;;4.96;100.00
62849;BME280;48941;49.516;8.286;2023-11-22T02:25:12;101166.16;;;5.02;100.00
62849;BME280;48941;49.516;8.286;2023-11-22T02:27:41;101173.38;;;4.98;100.00
62849;BME280;48941;49.516;8.286;2023-11-22T02:30:10;101176.00;;;4.98;100.00
62849;BME280;48941;49.516;8.286;2023-11-22T02:32:38;101183.19;;;4.94;100.00
62849;BME280;48941;49.516;8.286;2023-11-22T02:35:07;101186.88;;;4.90;100.00
62849;BME280;48941;49.516;8.286;2023-11-22T02:37:35;101192.16;;;4.90;100.00
62849;BME280;48941;49.516;8.286;2023-11-22T02:40:06;101191.50;;;4.85;100.00
62849;BME280;48941;49.516;8.286;2023-11-22T02:42:37;101196.00;;;4.83;100.00
62849;BME280;48941;49.516;8.286;2023-11-22T02:45:06;101203.31;;;4.76;100.00
62849;BME280;48941;49.516;8.286;2023-11-22T02:47:34;101207.22;;;4.68;100.00
62849;BME280;48941;49.516;8.286;2023-11-22T02:50:04;101208.66;;;4.75;100.00
62849;BME280;48941;49.516;8.286;2023-11-22T02:52:32;101211.44;;;4.72;100.00
62849;BME280;48941;49.516;8.286;2023-11-22T02:55:00;101208.13;;;4.67;100.00
62849;BME280;48941;49.516;8.286;2023-11-22T02:57:28;101216.38;;;4.59;100.00
62849;BME280;48941;49.516;8.286;2023-11-22T03:00:00;101214.63;;;4.59;100.00
62849;BME280;48941;49.516;8.286;2023-11-22T03:02:30;101207.19;;;4.47;100.00
62849;BME280;48941;49.516;8.286;2023-11-22T03:04:58;101201.91;;;4.47;100.00
62849;BME280;48941;49.516;8.286;2023-11-22T03:07:27;101195.97;;;4.42;100.00
62849;BME280;48941;49.516;8.286;2023-11-22T03:09:55;101201.47;;;4.37;100.00
62849;BME280;48941;49.516;8.286;2023-11-22T03:12:25;101209.53;;;4.33;100.00
62849;BME280;48941;49.516;8.286;2023-11-22T03:14:53;101211.94;;;4.39;100.00
62849;BME280;48941;49.516;8.286;2023-11-22T03:17:27;101205.22;;;4.32;100.00
62849;BME280;48941;49.516;8.286;2023-11-22T03:19:55;101217.72;;;4.27;100.00
62849;BME280;48941;49.516;8.286;2023-11-22T03:22:24;101216.84;;;4.26;100.00
62849;BME280;48941;49.516;8.286;2023-11-22T03:24:52;101228.41;;;4.24;100.00
62849;BME280;48941;49.516;8.286;2023-11-22T03:27:21;101229.56;;;4.16;100.00
62849;BME280;48941;49.516;8.286;2023-11-22T03:29:49;101236.41;;;4.21;100.00
62849;BME280;48941;49.516;8.286;2023-11-22T03:32:17;101241.75;;;4.19;100.00
62849;BME280;48941;49.516;8.286;2023-11-22T03:34:46;101248.16;;;4.13;100.00
62849;BME280;48941;49.516;8.286;2023-11-22T03:37:14;101243.88;;;4.09;100.00
62849;BME280;48941;49.516;8.286;2023-11-22T03:39:42;101266.09;;;4.04;100.00
62849;BME280;48941;49.516;8.286;2023-11-22T03:42:15;101266.16;;;4.02;100.00
62849;BME280;48941;49.516;8.286;2023-11-22T03:44:43;101260.94;;;4.01;100.00
62849;BME280;48941;49.516;8.286;2023-11-22T03:47:11;101265.31;;;4.02;100.00
62849;BME280;48941;49.516;8.286;2023-11-22T03:49:40;101273.94;;;4.05;100.00
62849;BME280;48941;49.516;8.286;2023-11-22T03:52:10;101270.25;;;4.09;100.00
62849;BME280;48941;49.516;8.286;2023-11-22T03:54:37;101272.34;;;4.01;100.00
62849;BME280;48941;49.516;8.286;2023-11-22T03:57:06;101276.75;;;4.01;100.00
62849;BME280;48941;49.516;8.286;2023-11-22T03:59:34;101277.78;;;3.96;100.00
62849;BME280;48941;49.516;8.286;2023-11-22T04:02:02;101275.22;;;3.95;100.00
62849;BME280;48941;49.516;8.286;2023-11-22T04:04:30;101281.38;;;3.95;100.00
62849;BME280;48941;49.516;8.286;2023-11-22T04:06:58;101286.53;;;3.97;100.00
62849;BME280;48941;49.516;8.286;2023-11-22T04:09:27;101288.16;;;4.01;100.00
62849;BME280;48941;49.516;8.286;2023-11-22T04:11:56;101296.25;;;3.96;100.00
62849;BME280;48941;49.516;8.286;2023-11-22T04:14:24;101295.25;;;3.99;100.00
62849;BME280;48941;49.516;8.286;2023-11-22T04:16:54;101306.09;;;3.91;100.00
62849;BME280;48941;49.516;8.286;2023-11-22T04:19:22;101307.91;;;3.89;100.00
62849;BME280;48941;49.516;8.286;2023-11-22T04:21:50;101314.97;;;3.89;100.00
62849;BME280;48941;49.516;8.286;2023-11-22T04:24:18;101313.13;;;3.91;100.00
62849;BME280;48941;49.516;8.286;2023-11-22T04:26:47;101322.03;;;3.88;100.00
62849;BME280;48941;49.516;8.286;2023-11-22T04:29:15;101332.84;;;3.81;100.00
62849;BME280;48941;49.516;8.286;2023-11-22T04:31:44;101338.94;;;3.83;100.00
62849;BME280;48941;49.516;8.286;2023-11-22T04:34:12;101348.72;;;3.79;100.00
62849;BME280;48941;49.516;8.286;2023-11-22T04:36:39;101347.16;;;3.73;100.00
62849;BME280;48941;49.516;8.286;2023-11-22T04:39:07;101345.69;;;3.66;100.00
62849;BME280;48941;49.516;8.286;2023-11-22T04:41:36;101357.28;;;3.61;100.00
62849;BME280;48941;49.516;8.286;2023-11-22T04:44:06;101357.41;;;3.57;100.00
62849;BME280;48941;49.516;8.286;2023-11-22T04:46:34;101351.41;;;3.54;100.00
62849;BME280;48941;49.516;8.286;2023-11-22T04:49:02;101350.59;;;3.52;100.00
62849;BME280;48941;49.516;8.286;2023-11-22T04:51:30;101355.84;;;3.52;100.00
62849;BME280;48941;49.516;8.286;2023-11-22T04:53:59;101349.66;;;3.53;100.00
62849;BME280;48941;49.516;8.286;2023-11-22T04:56:27;101353.16;;;3.53;100.00
62849;BME280;48941;49.516;8.286;2023-11-22T04:58:55;101360.94;;;3.56;100.00
62849;BME280;48941;49.516;8.286;2023-11-22T05:01:24;101359.06;;;3.60;100.00
62849;BME280;48941;49.516;8.286;2023-11-22T05:03:58;101359.94;;;3.61;100.00
62849;BME280;48941;49.516;8.286;2023-11-22T05:06:26;101361.72;;;3.60;100.00
62849;BME280;48941;49.516;8.286;2023-11-22T05:08:55;101364.38;;;3.58;100.00
62849;BME280;48941;49.516;8.286;2023-11-22T05:11:23;101367.13;;;3.55;100.00
62849;BME280;48941;49.516;8.286;2023-11-22T05:13:51;101367.06;;;3.57;100.00
62849;BME280;48941;49.516;8.286;2023-11-22T05:16:19;101368.44;;;3.44;100.00
62849;BME280;48941;49.516;8.286;2023-11-22T05:18:48;101360.00;;;3.34;100.00
62849;BME280;48941;49.516;8.286;2023-11-22T05:21:16;101375.72;;;3.35;100.00
62849;BME280;48941;49.516;8.286;2023-11-22T05:23:44;101378.34;;;3.35;100.00
62849;BME280;48941;49.516;8.286;2023-11-22T05:26:12;101378.63;;;3.28;100.00
62849;BME280;48941;49.516;8.286;2023-11-22T05:28:40;101387.19;;;3.34;100.00
62849;BME280;48941;49.516;8.286;2023-11-22T05:31:08;101369.59;;;3.35;100.00
62849;BME280;48941;49.516;8.286;2023-11-22T05:33:35;101377.44;;;3.36;100.00
62849;BME280;48941;49.516;8.286;2023-11-22T05:36:05;101380.00;;;3.39;100.00
62849;BME280;48941;49.516;8.286;2023-11-22T05:38:33;101380.72;;;3.43;100.00
62849;BME280;48941;49.516;8.286;2023-11-22T05:41:01;101379.03;;;3.42;100.00
62849;BME280;48941;49.516;8.286;2023-11-22T05:43:29;101385.31;;;3.38;100.00
62849;BME280;48941;49.516;8.286;2023-11-22T05:45:58;101386.22;;;3.37;100.00
62849;BME280;48941;49.516;8.286;2023-11-22T05:48:25;101396.91;;;3.32;100.00
62849;BME280;48941;49.516;8.286;2023-11-22T05:50:54;101404.03;;;3.29;100.00
62849;BME280;48941;49.516;8.286;2023-11-22T05:53:23;101419.00;;;3.28;100.00
62849;BME280;48941;49.516;8.286;2023-11-22T05:55:51;101421.81;;;3.22;100.00
62849;BME280;48941;49.516;8.286;2023-11-22T05:58:19;101420.25;;;3.16;100.00
62849;BME280;48941;49.516;8.286;2023-11-22T06:00:48;101432.69;;;3.11;100.00
62849;BME280;48941;49.516;8.286;2023-11-22T06:03:15;101430.13;;;3.10;100.00
62849;BME280;48941;49.516;8.286;2023-11-22T06:05:43;101429.56;;;3.00;100.00
62849;BME280;48941;49.516;8.286;2023-11-22T06:08:11;101426.25;;;2.93;100.00
62849;BME280;48941;49.516;8.286;2023-11-22T06:10:40;101429.88;;;2.89;100.00
62849;BME280;48941;49.516;8.286;2023-11-22T06:13:08;101433.41;;;2.90;100.00
62849;BME280;48941;49.516;8.286;2023-11-22T06:15:37;101437.69;;;2.92;100.00
62849;BME280;48941;49.516;8.286;2023-11-22T06:18:05;101443.81;;;2.93;100.00
62849;BME280;48941;49.516;8.286;2023-11-22T06:20:34;101448.06;;;2.97;100.00
62849;BME280;48941;49.516;8.286;2023-11-22T06:23:01;101447.03;;;3.03;100.00
62849;BME280;48941;49.516;8.286;2023-11-22T06:25:30;101448.59;;;3.08;100.00
62849;BME280;48941;49.516;8.286;2023-11-22T06:27:59;101457.31;;;3.10;100.00
62849;BME280;48941;49.516;8.286;2023-11-22T06:30:28;101458.06;;;3.14;100.00
62849;BME280;48941;49.516;8.286;2023-11-22T06:32:56;101458.06;;;3.14;100.00
62849;BME280;48941;49.516;8.286;2023-11-22T06:35:24;101459.91;;;3.12;100.00
62849;BME280;48941;49.516;8.286;2023-11-22T06:37:52;101472.88;;;3.18;100.00
62849;BME280;48941;49.516;8.286;2023-11-22T06:40:20;101479.78;;;3.21;100.00
62849;BME280;48941;49.516;8.286;2023-11-22T06:42:48;101484.16;;;3.22;100.00
62849;BME280;48941;49.516;8.286;2023-11-22T06:45:17;101491.13;;;3.23;100.00
62849;BME280;48941;49.516;8.286;2023-11-22T06:47:47;101502.44;;;3.26;100.00
62849;BME280;48941;49.516;8.286;2023-11-22T06:50:17;101500.69;;;3.25;100.00
62849;BME280;48941;49.516;8.286;2023-11-22T06:52:45;101500.63;;;3.28;100.00
62849;BME280;48941;49.516;8.286;2023-11-22T06:55:15;101495.34;;;3.28;100.00
62849;BME280;48941;49.516;8.286;2023-11-22T06:57:44;101495.34;;;3.28;100.00
62849;BME280;48941;49.516;8.286;2023-11-22T07:00:12;101491.06;;;3.26;100.00
62849;BME280;48941;49.516;8.286;2023-11-22T07:02:42;101496.41;;;3.23;100.00
62849;BME280;48941;49.516;8.286;2023-11-22T07:05:10;101503.50;;;3.21;100.00
62849;BME280;48941;49.516;8.286;2023-11-22T07:07:38;101492.00;;;3.23;100.00
62849;BME280;48941;49.516;8.286;2023-11-22T07:10:09;101492.09;;;3.20;100.00
62849;BME280;48941;49.516;8.286;2023-11-22T07:12:40;101499.28;;;3.15;100.00
62849;BME280;48941;49.516;8.286;2023-11-22T07:15:10;101507.97;;;3.17;100.00
62849;BME280;48941;49.516;8.286;2023-11-22T07:17:38;101510.66;;;3.15;100.00
62849;BME280;48941;49.516;8.286;2023-11-22T07:20:08;101522.13;;;3.14;100.00
62849;BME280;48941;49.516;8.286;2023-11-22T07:22:43;101533.50;;;3.15;100.00
62849;BME280;48941;49.516;8.286;2023-11-22T07:25:13;101532.59;;;3.16;100.00
62849;BME280;48941;49.516;8.286;2023-11-22T07:27:45;101539.78;;;3.11;100.00
62849;BME280;48941;49.516;8.286;2023-11-22T07:30:13;101535.47;;;3.08;100.00
62849;BME280;48941;49.516;8.286;2023-11-22T07:32:42;101546.84;;;3.09;100.00
62849;BME280;48941;49.516;8.286;2023-11-22T07:35:12;101538.28;;;3.02;100.00
62849;BME280;48941;49.516;8.286;2023-11-22T07:37:42;101544.41;;;3.03;99.86
62849;BME280;48941;49.516;8.286;2023-11-22T07:40:11;101542.59;;;3.05;98.63
62849;BME280;48941;49.516;8.286;2023-11-22T07:42:40;101544.44;;;3.01;96.93
62849;BME280;48941;49.516;8.286;2023-11-22T07:45:09;101550.69;;;2.98;96.71
62849;BME280;48941;49.516;8.286;2023-11-22T07:47:38;101545.41;;;2.98;94.49
62849;BME280;48941;49.516;8.286;2023-11-22T07:50:08;101543.63;;;2.99;93.50
62849;BME280;48941;49.516;8.286;2023-11-22T07:52:40;101543.59;;;3.01;91.64
62849;BME280;48941;49.516;8.286;2023-11-22T07:55:08;101544.50;;;2.99;91.23
62849;BME280;48941;49.516;8.286;2023-11-22T07:57:37;101541.81;;;3.01;90.26
62849;BME280;48941;49.516;8.286;2023-11-22T08:00:06;101541.69;;;3.06;90.16
62849;BME280;48941;49.516;8.286;2023-11-22T08:02:34;101538.34;;;3.01;87.63
62849;BME280;48941;49.516;8.286;2023-11-22T08:05:05;101534.03;;;2.98;85.80
62849;BME280;48941;49.516;8.286;2023-11-22T08:07:35;101532.28;;;2.97;86.49
62849;BME280;48941;49.516;8.286;2023-11-22T08:10:08;101536.78;;;2.93;86.69
62849;BME280;48941;49.516;8.286;2023-11-22T08:12:42;101534.97;;;2.95;86.94
62849;BME280;48941;49.516;8.286;2023-11-22T08:15:11;101532.28;;;2.97;86.34
62849;BME280;48941;49.516;8.286;2023-11-22T08:17:39;101541.16;;;2.94;85.17
62849;BME280;48941;49.516;8.286;2023-11-22T08:20:08;101541.16;;;2.94;86.05
62849;BME280;48941;49.516;8.286;2023-11-22T08:22:41;101537.56;;;2.97;85.85
62849;BME280;48941;49.516;8.286;2023-11-22T08:25:10;101534.94;;;2.97;86.25
62849;BME280;48941;49.516;8.286;2023-11-22T08:27:39;101534.09;;;2.95;85.21
62849;BME280;48941;49.516;8.286;2023-11-22T08:30:09;101542.88;;;2.95;85.34
62849;BME280;48941;49.516;8.286;2023-11-22T08:32:41;101548.03;;;2.98;85.81
62849;BME280;48941;49.516;8.286;2023-11-22T08:35:09;101549.81;;;2.98;85.65
62849;BME280;48941;49.516;8.286;2023-11-22T08:37:39;101552.38;;;2.99;84.01
62849;BME280;48941;49.516;8.286;2023-11-22T08:40:10;101556.72;;;3.02;82.62
62849;BME280;48941;49.516;8.286;2023-11-22T08:42:41;101568.88;;;3.06;82.13
62849;BME280;48941;49.516;8.286;2023-11-22T08:45:10;101567.88;;;3.10;82.47
62849;BME280;48941;49.516;8.286;2023-11-22T08:47:39;101570.28;;;3.18;83.08
62849;BME280;48941;49.516;8.286;2023-11-22T08:50:09;101565.59;;;3.28;81.22
62849;BME280;48941;49.516;8.286;2023-11-22T08:52:38;101567.06;;;3.36;77.27
62849;BME280;48941;49.516;8.286;2023-11-22T08:55:11;101580.25;;;3.36;76.90
62849;BME280;48941;49.516;8.286;2023-11-22T08:57:41;101575.63;;;3.43;76.57
62849;BME280;48941;49.516;8.286;2023-11-22T09:00:10;101570.94;;;3.53;77.36
62849;BME280;48941;49.516;8.286;2023-11-22T09:02:41;101572.03;;;3.74;76.31
62849;BME280;48941;49.516;8.286;2023-11-22T09:05:09;101573.31;;;3.87;73.22
62849;BME280;48941;49.516;8.286;2023-11-22T09:07:40;101587.06;;;3.97;70.74
62849;BME280;48941;49.516;8.286;2023-11-22T09:10:09;101579.25;;;4.21;69.13
62849;BME280;48941;49.516;8.286;2023-11-22T09:12:41;101582.69;;;4.48;68.05
62849;BME280;48941;49.516;8.286;2023-11-22T09:15:12;101594.28;;;4.67;65.09
62849;BME280;48941;49.516;8.286;2023-11-22T09:17:43;101596.28;;;4.86;64.77
62849;BME280;48941;49.516;8.286;2023-11-22T09:20:13;101587.09;;;4.96;62.18
62849;BME280;48941;49.516;8.286;2023-11-22T09:22:42;101586.50;;;5.11;62.44
62849;BME280;48941;49.516;8.286;2023-11-22T09:25:17;101596.09;;;5.14;60.09
62849;BME280;48941;49.516;8.286;2023-11-22T09:27:46;101581.56;;;5.02;59.67
62849;BME280;48941;49.516;8.286;2023-11-22T09:30:16;101572.94;;;4.97;60.43
62849;BME280;48941;49.516;8.286;2023-11-22T09:32:59;101567.16;;;5.11;62.13
62849;BME280;48941;49.516;8.286;2023-11-22T09:35:28;101578.13;;;5.24;62.91
62849;BME280;48941;49.516;8.286;2023-11-22T09:37:58;101581.00;;;5.39;61.25
62849;BME280;48941;49.516;8.286;2023-11-22T09:40:28;101576.69;;;5.59;59.64
62849;BME280;48941;49.516;8.286;2023-11-22T09:42:59;101563.53;;;5.79;58.96
62849;BME280;48941;49.516;8.286;2023-11-22T09:45:29;101564.19;;;5.85;58.95
62849;BME280;48941;49.516;8.286;2023-11-22T09:47:57;101563.72;;;5.97;58.62
62849;BME280;48941;49.516;8.286;2023-11-22T09:50:34;101563.84;;;6.14;58.16
62849;BME280;48941;49.516;8.286;2023-11-22T09:53:11;101571.09;;;6.31;57.56
62849;BME280;48941;49.516;8.286;2023-11-22T09:55:43;101587.94;;;6.29;56.62
62849;BME280;48941;49.516;8.286;2023-11-22T09:58:12;101592.25;;;6.31;55.93
62849;BME280;48941;49.516;8.286;2023-11-22T10:00:41;101597.81;;;6.25;55.26
62849;BME280;48941;49.516;8.286;2023-11-22T10:03:09;101607.59;;;6.23;56.28
62849;BME280;48941;49.516;8.286;2023-11-22T10:05:42;101612.09;;;6.21;55.83
62849;BME280;48941;49.516;8.286;2023-11-22T10:08:10;101625.00;;;6.07;56.04
62849;BME280;48941;49.516;8.286;2023-11-22T10:10:38;101630.56;;;6.01;55.37
62849;BME280;48941;49.516;8.286;2023-11-22T10:13:08;101628.19;;;5.93;56.73
62849;BME280;48941;49.516;8.286;2023-11-22T10:15:36;101627.09;;;5.76;57.47
62849;BME280;48941;49.516;8.286;2023-11-22T10:18:04;101629.69;;;5.56;59.11
62849;BME280;48941;49.516;8.286;2023-11-22T10:20:38;101630.44;;;5.59;60.19
62849;BME280;48941;49.516;8.286;2023-11-22T10:23:10;101642.16;;;5.52;58.75
62849;BME280;48941;49.516;8.286;2023-11-22T10:25:43;101633.09;;;5.36;58.91
62849;BME280;48941;49.516;8.286;2023-11-22T10:28:13;101635.94;;;5.31;59.72
62849;BME280;48941;49.516;8.286;2023-11-22T10:30:45;101632.56;;;5.28;61.05
62849;BME280;48941;49.516;8.286;2023-11-22T10:33:14;101636.84;;;5.30;61.36
62849;BME280;48941;49.516;8.286;2023-11-22T10:35:42;101636.22;;;5.24;61.42
62849;BME280;48941;49.516;8.286;2023-11-22T10:38:13;101636.78;;;5.32;60.03
62849;BME280;48941;49.516;8.286;2023-11-22T10:40:42;101655.22;;;5.33;61.64
62849;BME280;48941;49.516;8.286;2023-11-22T10:43:13;101653.91;;;5.22;62.73
62849;BME280;48941;49.516;8.286;2023-11-22T10:45:42;101647.66;;;5.24;60.70
62849;BME280;48941;49.516;8.286;2023-11-22T10:48:15;101645.84;;;5.25;61.83
62849;BME280;48941;49.516;8.286;2023-11-22T10:50:44;101649.25;;;5.28;61.74
62849;BME280;48941;49.516;8.286;2023-11-22T10:53:15;101652.22;;;5.19;61.43
62849;BME280;48941;49.516;8.286;2023-11-22T10:55:46;101642.31;;;5.26;61.50
62849;BME280;48941;49.516;8.286;2023-11-22T10:58:16;101647.69;;;5.23;61.54
62849;BME280;48941;49.516;8.286;2023-11-22T11:00:46;101645.41;;;5.13;61.66
62849;BME280;48941;49.516;8.286;2023-11-22T11:03:18;101651.50;;;5.15;62.41
62849;BME280;48941;49.516;8.286;2023-11-22T11:05:50;101652.47;;;5.13;62.66
62849;BME280;48941;49.516;8.286;2023-11-22T11:08:21;101655.75;;;5.19;61.45
62849;BME280;48941;49.516;8.286;2023-11-22T11:10:54;101666.25;;;5.21;60.69
62849;BME280;48941;49.516;8.286;2023-11-22T11:13:24;101678.63;;;5.19;61.57
62849;BME280;48941;49.516;8.286;2023-11-22T11:15:53;101686.38;;;5.25;62.05
62849;BME280;48941;49.516;8.286;2023-11-22T11:18:23;101671.41;;;5.24;61.38
62849;BME280;48941;49.516;8.286;2023-11-22T11:20:56;101674.13;;;5.23;61.34
62849;BME280;48941;49.516;8.286;2023-11-22T11:23:27;101664.59;;;5.18;61.71
62849;BME280;48941;49.516;8.286;2023-11-22T11:25:56;101674.13;;;5.23;61.75
62849;BME280;48941;49.516;8.286;2023-11-22T11:28:25;101673.22;;;5.24;61.41
62849;BME280;48941;49.516;8.286;2023-11-22T11:30:54;101685.19;;;5.32;60.69
62849;BME280;48941;49.516;8.286;2023-11-22T11:33:27;101686.50;;;5.21;61.03
62849;BME280;48941;49.516;8.286;2023-11-22T11:35:57;101685.47;;;5.25;62.03
62849;BME280;48941;49.516;8.286;2023-11-22T11:38:30;101690.09;;;5.19;62.97
62849;BME280;48941;49.516;8.286;2023-11-22T11:41:06;101694.41;;;5.22;62.89
62849;BME280;48941;49.516;8.286;2023-11-22T11:43:42;101683.88;;;5.21;62.42
62849;BME280;48941;49.516;8.286;2023-11-22T11:46:12;101681.88;;;5.27;62.61
62849;BME280;48941;49.516;8.286;2023-11-22T11:48:45;101679.97;;;5.31;61.29
62849;BME280;48941;49.516;8.286;2023-11-22T11:51:16;101691.91;;;5.41;61.47
62849;BME280;48941;49.516;8.286;2023-11-22T11:53:44;101696.28;;;5.42;62.14
62849;BME280;48941;49.516;8.286;2023-11-22T11:56:13;101695.00;;;5.52;61.21
62849;BME280;48941;49.516;8.286;2023-11-22T11:58:43;101702.13;;;5.50;60.44
62849;BME280;48941;49.516;8.286;2023-11-22T12:01:13;101702.13;;;5.50;60.77
62849;BME280;48941;49.516;8.286;2023-11-22T12:03:41;101701.28;;;5.50;59.62
62849;BME280;48941;49.516;8.286;2023-11-22T12:06:10;101708.75;;;5.38;60.06
62849;BME280;48941;49.516;8.286;2023-11-22T12:08:37;101701.06;;;5.32;60.27
62849;BME280;48941;49.516;8.286;2023-11-22T12:11:06;101691.34;;;5.33;60.82
62849;BME280;48941;49.516;8.286;2023-11-22T12:13:35;101693.66;;;5.42;61.52
62849;BME280;48941;49.516;8.286;2023-11-22T12:16:07;101684.91;;;5.40;60.59
62849;BME280;48941;49.516;8.286;2023-11-22T12:18:40;101688.25;;;5.45;59.46
62849;BME280;48941;49.516;8.286;2023-11-22T12:21:10;101681.94;;;5.49;60.02
62849;BME280;48941;49.516;8.286;2023-11-22T12:23:40;101685.38;;;5.51;59.89
62849;BME280;48941;49.516;8.286;2023-11-22T12:26:10;101682.75;;;5.51;59.12
62849;BME280;48941;49.516;8.286;2023-11-22T12:28:39;101677.31;;;5.54;58.05
62849;BME280;48941;49.516;8.286;2023-11-22T12:31:20;101671.56;;;5.43;59.00
62849;BME280;48941;49.516;8.286;2023-11-22T12:33:48;101662.94;;;5.39;58.28
62849;BME280;48941;49.516;8.286;2023-11-22T12:36:18;101652.88;;;5.49;58.55
62849;BME280;48941;49.516;8.286;2023-11-22T12:38:47;101654.72;;;5.47;60.16
62849;BME280;48941;49.516;8.286;2023-11-22T12:41:15;101639.56;;;5.51;58.64
62849;BME280;48941;49.516;8.286;2023-11-22T12:44:01;101632.16;;;5.61;58.24
62849;BME280;48941;49.516;8.286;2023-11-22T12:46:44;101631.41;;;5.57;58.25
62849;BME280;48941;49.516;8.286;2023-11-22T12:49:12;101640.06;;;5.61;57.92
62849;BME280;48941;49.516;8.286;2023-11-22T12:51:46;101637.91;;;5.48;57.70
62849;BME280;48941;49.516;8.286;2023-11-22T12:54:14;101653.81;;;5.47;58.48
62849;BME280;48941;49.516;8.286;2023-11-22T12:56:43;101636.66;;;5.35;57.88
62849;BME280;48941;49.516;8.286;2023-11-22T12:59:11;101640.91;;;5.39;59.38
62849;BME280;48941;49.516;8.286;2023-11-22T13:01:41;101658.34;;;5.43;60.96
62849;BME280;48941;49.516;8.286;2023-11-22T13:04:09;101654.91;;;5.41;63.17
62849;BME280;48941;49.516;8.286;2023-11-22T13:06:38;101659.06;;;5.48;62.89